Latest Coastal Weather Observations for Cato Island

IDQ60701

Issued at 2:41 am EST Wednesday 24 May 2017 (issued every 10 minutes, with the page automatically refreshed every 10 minutes)

About coastal observations | Map of coastal stations | Coastal observations for QLD | Marine services | Other Formats
Station Details ID: 200601 Name: CATO ISLAND Lat: -23.25 Lon: 155.54 Height: 6.3 m
Data from the previous 72 hours. | See also: Recent months for locations in Queensland
Date/Time
EST
Temp
°C
Wind Pressure Rain since
9am
mm
Weather Cloud Vis
km
Sea
Height
m
Swell
Dir  Spd
kts
Gust
kts
hPa Trend Height
m
Period
s
Dir
24/02:30am 23.2 SSE 20 25 1015.9 - - - - - - - - -
24/02:00am 23.4 SSE 20 23 1016.0 - - - - - - - - -
24/01:30am 23.3 SSE 20 23 1016.1 - - - - - - - - -
24/01:00am 23.3 SSE 20 23 1016.2 - - - - - - - - -
24/12:30am 23.5 SSE 19 22 1016.5 - - - - - - - - -
24/12:00am 23.3 SSE 19 22 1016.7 - - - - - - - - -
 
Date/Time
EST
Temp
°C
Wind Pressure Rain since
9am
mm
Weather Cloud Vis
km
Sea
Height
m
Swell
Dir  Spd
kts
Gust
kts
hPa Trend Height
m
Period
s
Dir
23/11:30pm 23.4 SSE 19 21 1017.0 - - - - - - - - -
23/11:00pm 23.5 SSE 20 23 1017.2 - - - - - - - - -
23/10:30pm 23.4 SSE 20 23 1017.2 - - - - - - - - -
23/10:00pm 23.2 SSE 19 23 1017.3 - - - - - - - - -
23/09:30pm 23.1 SSE 20 23 1017.3 - - - - - - - - -
23/09:00pm 22.9 SSE 24 29 1017.4 - - - - - - - - -
23/08:30pm 23.4 SSE 19 27 1017.4 - - - - - - - - -
23/08:00pm 23.3 SSE 20 23 1017.4 - - - - - - - - -
23/07:30pm 23.4 SSE 20 23 1017.4 - - - - - - - - -
23/07:00pm 23.5 SSE 19 23 1017.2 - - - - - - - - -
23/06:30pm 23.5 SSE 19 21 1016.9 - - - - - - - - -
23/06:00pm 23.4 SSE 19 22 1016.6 - - - - - - - - -
23/05:30pm 23.4 SSE 19 21 1016.2 - - - - - - - - -
23/05:00pm 23.5 SSE 18 20 1016.2 - - - - - - - - -
23/04:30pm 23.6 SSE 17 19 1016.0 - - - - - - - - -
23/04:00pm 23.6 SSE 16 18 1015.9 - - - - - - - - -
23/03:30pm 23.8 SSE 16 18 1015.6 - - - - - - - - -
23/03:00pm 24.0 SSE 15 17 1015.5 - - - - - - - - -
23/02:30pm 24.1 S 15 17 1015.5 - - - - - - - - -
23/02:00pm 24.2 S 15 18 1015.7 - - - - - - - - -
23/01:30pm 24.2 SSE 15 19 1015.6 - - - - - - - - -
23/01:00pm 24.1 S 14 16 1015.9 - - - - - - - - -
23/12:30pm 24.1 S 15 17 1016.2 - - - - - - - - -
23/12:00pm 24.1 SSE 15 17 1016.6 - - - - - - - - -
23/11:30am 24.0 SSE 15 17 1017.2 - - - - - - - - -
23/11:00am 24.3 S 12 14 1017.5 - - - - - - - - -
23/10:30am 24.3 SSE 14 16 1017.9 - - - - - - - - -
23/10:00am 24.2 SSE 14 17 1018.3 - - - - - - - - -
23/09:30am 24.1 SSE 13 15 1018.6 - - - - - - - - -
23/09:00am 24.1 SSE 14 16 1018.8 - - - - - - - - -
23/08:30am 23.9 SSE 12 14 1018.8 - - - - - - - - -
23/08:00am 24.3 SSE 12 14 1018.5 - - - - - - - - -
23/07:30am 23.8 SSE 12 14 1018.2 - - - - - - - - -
23/07:00am 23.6 SSE 13 15 1018.0 - - - - - - - - -
23/06:30am 23.5 SSE 12 14 1017.7 - - - - - - - - -
23/06:00am 23.4 SSE 10 12 1017.3 - - - - - - - - -
23/05:30am 23.3 SSE 11 13 1017.0 - - - - - - - - -
23/05:00am 23.3 SSE 13 16 1016.8 - - - - - - - - -
23/04:30am 23.4 SSE 15 17 1016.7 - - - - - - - - -
23/04:00am 23.4 SSE 14 16 1016.6 - - - - - - - - -
23/03:30am 23.3 SSE 15 17 1016.4 - - - - - - - - -
23/03:00am 23.4 SE 16 19 1016.5 - - - - - - - - -
23/02:30am 23.4 SSE 17 19 1016.4 - - - - - - - - -
23/02:00am 23.4 SSE 16 19 1016.6 - - - - - - - - -
23/01:30am 23.4 SSE 18 21 1016.8 - - - - - - - - -
23/01:00am 23.5 SSE 17 20 1016.9 - - - - - - - - -
23/12:30am 23.4 SSE 17 19 1017.2 - - - - - - - - -
23/12:00am 23.5 SSE 18 21 1017.5 - - - - - - - - -
 
Date/Time
EST
Temp
°C
Wind Pressure Rain since
9am
mm
Weather Cloud Vis
km
Sea
Height
m
Swell
Dir  Spd
kts
Gust
kts
hPa Trend Height
m
Period
s
Dir
22/11:30pm 23.6 SSE 16 19 1017.8 - - - - - - - - -
22/11:00pm 23.5 SE 17 19 1018.0 - - - - - - - - -
22/10:30pm 23.6 SE 18 21 1018.1 - - - - - - - - -
22/10:00pm 23.6 SSE 19 22 1018.0 - - - - - - - - -
22/09:30pm 23.7 SSE 19 22 1018.1 - - - - - - - - -
22/09:00pm 23.8 SSE 20 23 1018.2 - - - - - - - - -
22/08:30pm 23.7 SSE 18 20 1018.1 - - - - - - - - -
22/08:00pm 23.8 SSE 17 19 1018.1 - - - - - - - - -
22/07:30pm 23.8 SSE 18 21 1017.7 - - - - - - - - -
22/07:00pm 23.8 SSE 19 22 1017.4 - - - - - - - - -
22/06:30pm 23.7 SE 19 22 1017.0 - - - - - - - - -
22/06:00pm 23.7 SSE 20 23 1016.6 - - - - - - - - -
22/05:30pm 23.9 SSE 20 22 1016.4 - - - - - - - - -
22/05:00pm 23.9 SSE 19 22 1016.2 - - - - - - - - -
22/04:30pm 24.0 SSE 19 21 1016.0 - - - - - - - - -
22/04:00pm 24.1 SSE 19 22 1015.9 - - - - - - - - -
22/03:30pm 24.3 SSE 19 22 1015.6 - - - - - - - - -
22/03:00pm 24.5 SSE 19 21 1015.7 - - - - - - - - -
22/02:30pm 24.7 SSE 17 20 1015.7 - - - - - - - - -
22/02:00pm 24.5 SE 17 19 1015.6 - - - - - - - - -
22/01:30pm 24.7 SE 17 20 1015.8 - - - - - - - - -
22/01:00pm 24.5 SE 17 21 1015.9 - - - - - - - - -
22/12:30pm 24.6 SE 19 22 1016.0 - - - - - - - - -
22/12:00pm 24.5 SE 17 20 1016.4 - - - - - - - - -
22/11:30am 24.4 ESE 18 19 1016.7 - - - - - - - - -
22/11:00am 24.5 ESE 18 20 1017.1 - - - - - - - - -
22/10:30am 24.4 SE 20 22 1017.2 - - - - - - - - -
22/10:00am 24.5 ESE 18 21 1017.4 - - - - - - - - -
22/09:30am 24.4 ESE 19 21 1017.6 - - - - - - - - -
22/09:00am 24.4 ESE 18 22 1017.7 - - - - - - - - -
22/08:30am 24.4 ESE 18 20 1017.6 - - - - - - - - -
22/08:00am 24.2 SE 17 19 1017.4 - - - - - - - - -
22/07:30am 24.1 ESE 18 21 1017.2 - - - - - - - - -
22/07:00am 24.0 SE 18 20 1016.8 - - - - - - - - -
22/06:30am 23.7 SE 18 21 1016.4 - - - - - - - - -
22/06:00am 23.8 SE 19 21 1016.1 - - - - - - - - -
22/05:30am 23.8 ESE 18 20 1015.8 - - - - - - - - -
22/05:00am 23.8 ESE 18 20 1015.7 - - - - - - - - -
22/04:30am 23.6 ESE 17 20 1015.4 - - - - - - - - -
22/04:00am 23.5 ESE 18 19 1015.3 - - - - - - - - -
22/03:30am 23.5 ESE 17 20 1015.3 - - - - - - - - -
22/03:00am 23.8 ESE 19 21 1015.2 - - - - - - - - -
22/02:30am 23.7 ESE 18 20 1015.2 - - - - - - - - -
22/02:00am 23.7 ESE 17 20 1015.3 - - - - - - - - -
22/01:30am 23.2 ESE 18 22 1015.6 - - - - - - - - -
22/01:00am 23.8 ESE 19 21 1015.6 - - - - - - - - -
22/12:30am 23.8 ESE 19 22 1015.8 - - - - - - - - -
22/12:00am 23.8 ESE 20 23 1015.8 - - - - - - - - -
 
Date/Time
EST
Temp
°C
Wind Pressure Rain since
9am
mm
Weather Cloud Vis
km
Sea
Height
m
Swell
Dir  Spd
kts
Gust
kts
hPa Trend Height
m
Period
s
Dir
21/11:30pm 23.7 ESE 19 21 1016.1 - - - - - - - - -
21/11:00pm 23.6 ESE 18 20 1016.2 - - - - - - - - -
21/10:30pm 23.7 ESE 17 19 1016.3 - - - - - - - - -
21/10:00pm 23.9 ESE 21 24 1016.4 - - - - - - - - -
21/09:30pm 24.0 ESE 20 25 1016.3 - - - - - - - - -
21/09:00pm 23.9 SE 19 22 1016.2 - - - - - - - - -
21/08:30pm 24.0 SE 19 22 1016.3 - - - - - - - - -
21/08:00pm 23.8 SE 19 23 1016.1 - - - - - - - - -
21/07:30pm 23.9 ESE 20 22 1015.8 - - - - - - - - -
21/07:00pm 23.7 ESE 19 23 1015.6 - - - - - - - - -
21/06:30pm 23.9 SE 20 25 1015.3 - - - - - - - - -
21/06:00pm 23.7 SE 18 21 1015.0 - - - - - - - - -
21/05:30pm 23.9 SE 17 20 1014.6 - - - - - - - - -
21/05:00pm 24.0 SE 17 19 1014.3 - - - - - - - - -
21/04:30pm 24.1 ESE 16 19 1014.0 - - - - - - - - -
21/04:00pm 24.0 ESE 13 15 1014.0 - - - - - - - - -
21/03:30pm 24.1 ESE 16 18 1013.6 - - - - - - - - -
21/03:00pm 24.1 ESE 16 20 1013.4 - - - - - - - - -
21/02:30pm 23.7 ESE 19 22 1013.4 - - - - - - - - -
21/02:00pm 24.7 ESE 17 19 1013.4 - - - - - - - - -
21/01:30pm 24.9 ESE 16 18 1013.6 - - - - - - - - -
21/01:00pm 24.8 E 18 21 1013.7 - - - - - - - - -
21/12:30pm 24.4 ESE 17 19 1014.1 - - - - - - - - -
21/12:00pm 24.5 ESE 18 20 1014.2 - - - - - - - - -
21/11:30am 24.9 E 18 21 1014.6 - - - - - - - - -
21/11:00am 24.3 ESE 20 23 1014.7 - - - - - - - - -
21/10:30am 24.3 E 18 22 1015.0 - - - - - - - - -
21/10:00am 23.9 E 21 25 1015.3 - - - - - - - - -
21/09:30am 24.4 E 19 21 1015.3 - - - - - - - - -
21/09:00am 24.3 E 19 22 1015.4 - - - - - - - - -
21/08:30am 23.9 E 20 23 1015.3 - - - - - - - - -
21/08:00am 23.8 E 19 23 1015.0 - - - - - - - - -
21/07:30am 23.7 ESE 18 22 1014.8 - - - - - - - - -
21/07:00am 23.8 E 19 22 1014.5 - - - - - - - - -
21/06:30am 23.4 E 21 26 1014.1 - - - - - - - - -
21/06:26am 23.3 E 21 26 1014.0 - - - - - - - - -
21/06:00am 23.6 ESE 18 20 1013.8 - - - - - - - - -
21/05:30am 23.5 ESE 20 26 1013.4 - - - - - - - - -
21/05:00am 23.4 ESE 20 23 1013.3 - - - - - - - - -
21/04:30am 23.5 ESE 21 26 1013.0 - - - - - - - - -
21/04:00am 22.6 ESE 21 24 1012.9 - - - - - - - - -
21/03:30am 23.2 ESE 22 25 1012.8 - - - - - - - - -
21/03:00am 23.8 E 18 22 1013.0 - - - - - - - - -

Other Formats:

Comma delimited format used in spreadsheet applications
http://www.bom.gov.au/fwo/IDQ60701/IDQ60701.94394.axf

JavaScript Object Notation format (JSON) in row-major order
http://www.bom.gov.au/fwo/IDQ60701/IDQ60701.94394.json